createdAt,value
2019-01-15T00:00:46.166Z,99.90
2019-01-15T00:02:52.391Z,99.90
2019-01-15T00:04:58.100Z,99.90
2019-01-15T00:07:11.327Z,99.90
2019-01-15T00:09:17.525Z,99.90
2019-01-15T00:11:23.191Z,99.90
2019-01-15T00:13:34.765Z,99.90
2019-01-15T00:15:40.698Z,99.90
2019-01-15T00:17:46.266Z,99.90
2019-01-15T00:19:51.955Z,99.90
2019-01-15T00:21:57.512Z,99.90
2019-01-15T00:24:02.966Z,99.90
2019-01-15T00:26:10.180Z,99.90
2019-01-15T00:28:15.689Z,99.90
2019-01-15T00:30:21.350Z,99.90
2019-01-15T00:32:28.363Z,99.90
2019-01-15T00:34:34.002Z,99.90
2019-01-15T00:36:39.602Z,99.90
2019-01-15T00:38:46.946Z,99.90
2019-01-15T00:40:52.505Z,99.90
2019-01-15T00:42:58.006Z,99.90
2019-01-15T00:45:03.805Z,99.90
2019-01-15T00:47:09.399Z,99.90
2019-01-15T00:49:14.946Z,99.90
2019-01-15T00:51:20.634Z,99.90
2019-01-15T00:53:26.239Z,99.90
2019-01-15T00:55:31.790Z,99.90
2019-01-15T00:57:38.620Z,99.90
2019-01-15T00:59:44.426Z,99.90
2019-01-15T01:01:50.358Z,99.90
2019-01-15T01:03:59.027Z,99.90
2019-01-15T01:06:07.863Z,99.90
2019-01-15T01:08:13.364Z,99.90
2019-01-15T01:10:22.086Z,99.90
2019-01-15T01:12:28.438Z,99.90
2019-01-15T01:14:33.905Z,99.90
2019-01-15T01:16:39.397Z,99.90
2019-01-15T01:18:45.129Z,99.90
2019-01-15T01:20:50.600Z,99.90
2019-01-15T01:22:57.395Z,99.90
2019-01-15T01:25:02.883Z,99.90
2019-01-15T01:27:08.436Z,99.90
2019-01-15T01:29:16.023Z,99.90
2019-01-15T01:31:21.902Z,99.90
2019-01-15T01:33:27.516Z,99.90
2019-01-15T01:35:34.221Z,99.90
2019-01-15T01:37:39.794Z,99.90
2019-01-15T01:39:45.229Z,99.90
2019-01-15T01:41:51.029Z,99.90
2019-01-15T01:43:56.962Z,99.90
2019-01-15T01:46:02.553Z,99.90
2019-01-15T01:48:10.477Z,99.90
2019-01-15T01:50:16.318Z,99.90
2019-01-15T01:52:21.756Z,99.90
2019-01-15T01:54:30.558Z,99.90
2019-01-15T01:56:36.542Z,99.90
2019-01-15T01:58:42.458Z,99.90
2019-01-15T02:00:48.411Z,99.90
2019-01-15T02:02:53.898Z,99.90
2019-01-15T02:04:59.682Z,99.90
2019-01-15T02:07:08.021Z,99.90
2019-01-15T02:09:13.641Z,99.90
2019-01-15T02:11:19.605Z,99.90
2019-01-15T02:13:25.150Z,99.90
2019-01-15T02:15:31.042Z,99.90
2019-01-15T02:17:37.321Z,99.90
2019-01-15T02:19:42.822Z,99.90
2019-01-15T02:21:48.818Z,99.90
2019-01-15T02:23:54.362Z,99.90
2019-01-15T02:26:01.359Z,99.90
2019-01-15T02:28:06.762Z,99.90
2019-01-15T02:30:16.648Z,99.90
2019-01-15T02:32:24.200Z,99.90
2019-01-15T02:34:30.330Z,99.90
2019-01-15T02:36:35.965Z,99.90
2019-01-15T02:38:44.205Z,99.90
2019-01-15T02:40:49.859Z,99.90
2019-01-15T02:42:55.435Z,99.90
2019-01-15T02:45:08.587Z,99.90
2019-01-15T02:47:14.008Z,99.90
2019-01-15T02:49:19.487Z,99.90
2019-01-15T02:51:27.214Z,99.90
2019-01-15T02:53:32.938Z,99.90
2019-01-15T02:55:38.341Z,99.90
2019-01-15T02:57:47.145Z,99.90
2019-01-15T02:59:52.526Z,99.90
2019-01-15T03:01:57.954Z,99.90
2019-01-15T03:04:03.444Z,99.90
2019-01-15T03:06:08.947Z,99.90
2019-01-15T03:08:14.942Z,99.90
2019-01-15T03:10:26.259Z,99.90
2019-01-15T03:12:31.817Z,99.90
2019-01-15T03:14:37.193Z,99.90
2019-01-15T03:16:42.705Z,99.90
2019-01-15T03:18:48.406Z,99.90
2019-01-15T03:20:53.795Z,99.90
2019-01-15T03:23:05.361Z,99.90
2019-01-15T03:25:11.154Z,99.90
2019-01-15T03:27:16.642Z,99.90
2019-01-15T03:29:22.034Z,99.90
2019-01-15T03:31:27.899Z,99.90
2019-01-15T03:33:33.366Z,99.90
2019-01-15T03:35:39.606Z,99.90
2019-01-15T03:37:45.175Z,99.90
2019-01-15T03:39:51.711Z,99.90
2019-01-15T03:41:57.485Z,99.90
2019-01-15T03:44:03.157Z,99.90
2019-01-15T03:46:08.804Z,99.90
2019-01-15T03:48:16.085Z,99.90
2019-01-15T03:50:21.803Z,99.90
2019-01-15T03:52:27.301Z,99.90
2019-01-15T03:54:32.702Z,99.90
2019-01-15T03:56:38.221Z,99.90
2019-01-15T03:58:43.775Z,99.90
2019-01-15T04:00:49.550Z,99.90
2019-01-15T04:02:56.094Z,99.90
2019-01-15T04:05:02.098Z,99.90
2019-01-15T04:07:08.391Z,99.90
2019-01-15T04:09:13.837Z,99.90
2019-01-15T04:11:19.234Z,99.90
2019-01-15T04:13:25.665Z,99.90
2019-01-15T04:15:31.069Z,99.90
2019-01-15T04:17:37.170Z,99.90
2019-01-15T04:19:43.215Z,99.90
2019-01-15T04:21:48.826Z,99.90
2019-01-15T04:23:54.460Z,99.90
2019-01-15T04:26:06.313Z,99.90
2019-01-15T04:28:11.747Z,99.90
2019-01-15T04:30:19.529Z,99.90
2019-01-15T04:32:24.970Z,99.90
2019-01-15T04:34:30.433Z,99.90
2019-01-15T04:36:35.842Z,99.90
2019-01-15T04:38:41.254Z,99.90
2019-01-15T04:40:47.058Z,99.90
2019-01-15T04:42:52.712Z,99.90
2019-01-15T04:44:58.162Z,99.90
2019-01-15T04:47:04.356Z,99.90
2019-01-15T04:49:10.050Z,99.90
2019-01-15T04:51:15.528Z,99.90
2019-01-15T04:53:21.022Z,99.90
2019-01-15T04:55:26.468Z,99.90
2019-01-15T04:57:32.047Z,99.90
2019-01-15T04:59:37.789Z,99.90
2019-01-15T05:01:43.221Z,99.90
2019-01-15T05:03:49.809Z,99.90
2019-01-15T05:05:55.474Z,99.90
2019-01-15T05:08:01.109Z,99.90
2019-01-15T05:10:07.485Z,99.90
2019-01-15T05:12:12.922Z,99.90
2019-01-15T05:14:19.255Z,99.90
2019-01-15T05:16:24.754Z,99.90
2019-01-15T05:18:30.466Z,99.90
2019-01-15T05:20:37.775Z,99.90
2019-01-15T05:22:43.258Z,99.90
2019-01-15T05:24:50.693Z,99.90
2019-01-15T05:26:56.289Z,99.90
2019-01-15T05:29:03.923Z,99.90
2019-01-15T05:31:09.453Z,99.90
2019-01-15T05:33:15.042Z,99.90
2019-01-15T05:35:21.130Z,99.90
2019-01-15T05:37:26.655Z,99.90
2019-01-15T05:39:32.126Z,99.90
2019-01-15T05:41:39.911Z,99.90
2019-01-15T05:43:45.533Z,99.90
2019-01-15T05:45:52.786Z,99.90
2019-01-15T05:48:01.701Z,99.90
2019-01-15T05:50:10.186Z,99.90
2019-01-15T05:52:15.797Z,99.90
2019-01-15T05:54:21.587Z,99.90
2019-01-15T05:56:27.829Z,99.90
2019-01-15T05:58:33.825Z,99.90
2019-01-15T06:00:43.074Z,99.90
2019-01-15T06:02:48.587Z,99.90
2019-01-15T06:04:54.072Z,99.90
2019-01-15T06:07:00.135Z,99.90
2019-01-15T06:09:09.413Z,99.90
2019-01-15T06:11:15.037Z,99.90
2019-01-15T06:13:20.858Z,99.90
2019-01-15T06:15:26.283Z,99.90
2019-01-15T06:17:32.185Z,99.90
2019-01-15T06:19:37.812Z,99.90
2019-01-15T06:21:44.253Z,99.90
2019-01-15T06:23:49.804Z,99.90
2019-01-15T06:25:55.693Z,99.90
2019-01-15T06:28:01.472Z,99.90
2019-01-15T06:30:10.203Z,99.90
2019-01-15T06:32:17.916Z,99.90
2019-01-15T06:34:23.500Z,99.90
2019-01-15T06:36:29.395Z,99.90
2019-01-15T06:38:36.321Z,99.90
2019-01-15T06:40:41.834Z,99.90
2019-01-15T06:42:48.179Z,99.90
2019-01-15T06:44:55.501Z,99.90
2019-01-15T06:47:01.042Z,99.90
2019-01-15T06:49:07.154Z,99.90
2019-01-15T06:51:12.670Z,99.90
2019-01-15T06:53:18.435Z,99.90
2019-01-15T06:55:24.246Z,99.90
2019-01-15T06:57:30.200Z,99.90
2019-01-15T06:59:35.722Z,99.90
2019-01-15T07:01:41.829Z,99.90
2019-01-15T07:03:47.409Z,99.90
2019-01-15T07:05:56.081Z,99.90
2019-01-15T07:08:01.528Z,99.90
2019-01-15T07:10:09.322Z,99.90
2019-01-15T07:12:14.889Z,99.90
2019-01-15T07:14:20.369Z,99.90
2019-01-15T07:16:26.095Z,99.90
2019-01-15T07:18:31.791Z,99.90
2019-01-15T07:20:37.507Z,99.90
2019-01-15T07:22:42.973Z,99.90
2019-01-15T07:24:48.601Z,99.90
2019-01-15T07:26:54.130Z,99.90
2019-01-15T07:28:59.857Z,99.90
2019-01-15T07:31:05.942Z,99.90
2019-01-15T07:33:11.527Z,99.90
2019-01-15T07:35:16.988Z,99.90
2019-01-15T07:37:23.138Z,99.90
2019-01-15T07:39:29.053Z,99.90
2019-01-15T07:41:34.885Z,99.90
2019-01-15T07:43:40.693Z,99.90
2019-01-15T07:45:46.231Z,99.90
2019-01-15T07:47:51.865Z,99.90
2019-01-15T07:49:57.895Z,99.90
2019-01-15T07:52:03.369Z,99.90
2019-01-15T07:54:14.638Z,99.90
2019-01-15T07:56:20.093Z,99.90
2019-01-15T07:58:25.713Z,99.90
2019-01-15T08:00:38.598Z,99.90
2019-01-15T08:02:45.459Z,99.90
2019-01-15T08:04:52.225Z,99.90
2019-01-15T08:07:00.545Z,99.90
2019-01-15T08:09:09.770Z,99.90
2019-01-15T08:11:15.206Z,99.90
2019-01-15T08:13:21.226Z,99.90
2019-01-15T08:15:28.582Z,99.90
2019-01-15T08:17:34.241Z,99.90
2019-01-15T08:19:39.666Z,99.90
2019-01-15T08:21:45.096Z,99.90
2019-01-15T08:23:50.885Z,99.90
2019-01-15T08:25:56.574Z,99.90
2019-01-15T08:28:03.468Z,99.90
2019-01-15T08:30:22.596Z,99.90
2019-01-15T08:32:36.871Z,99.90
2019-01-15T08:34:42.732Z,99.90
2019-01-15T08:36:49.042Z,99.90
2019-01-15T08:38:54.718Z,99.90
2019-01-15T08:41:00.183Z,99.90
2019-01-15T08:43:06.380Z,99.90
2019-01-15T08:45:13.660Z,99.90
2019-01-15T08:47:20.774Z,99.90
2019-01-15T08:49:26.197Z,99.90
2019-01-15T08:51:31.897Z,99.90
2019-01-15T08:53:37.620Z,99.90
2019-01-15T08:55:43.747Z,99.90
2019-01-15T08:57:50.125Z,99.90
2019-01-15T08:59:55.629Z,99.90
2019-01-15T09:02:01.252Z,99.90
2019-01-15T09:04:09.506Z,99.90
2019-01-15T09:06:15.119Z,99.90
2019-01-15T09:08:20.625Z,99.90
2019-01-15T09:10:29.366Z,99.90
2019-01-15T09:12:34.890Z,99.90
2019-01-15T09:14:40.463Z,99.90
2019-01-15T09:16:48.617Z,99.90
2019-01-15T09:18:54.158Z,99.90
2019-01-15T09:20:59.663Z,99.90
2019-01-15T09:23:06.762Z,99.90
2019-01-15T09:25:12.425Z,99.90
2019-01-15T09:27:17.829Z,99.90
2019-01-15T09:29:23.440Z,99.90
2019-01-15T09:31:29.097Z,99.90
2019-01-15T09:33:34.741Z,99.90
2019-01-15T09:35:40.390Z,99.90
2019-01-15T09:37:47.485Z,72.60
2019-01-15T09:39:53.031Z,56.80
2019-01-15T09:41:58.646Z,49.60
2019-01-15T09:44:03.797Z,45.10
2019-01-15T09:46:09.641Z,42.70
2019-01-15T09:48:25.128Z,43.30
2019-01-15T09:50:30.581Z,39.40
2019-01-15T09:52:36.277Z,40.20
2019-01-15T09:54:45.350Z,38.10
2019-01-15T09:56:51.029Z,40.80
2019-01-15T09:58:56.242Z,38.30
2019-01-15T10:01:01.377Z,37.20
2019-01-15T10:03:07.215Z,38.50
2019-01-15T10:05:12.497Z,38.00
2019-01-15T10:07:17.685Z,38.10
2019-01-15T10:09:22.846Z,36.40
2019-01-15T10:11:28.637Z,33.90
2019-01-15T10:13:33.849Z,33.60
2019-01-15T10:15:39.725Z,34.50
2019-01-15T10:17:44.973Z,29.40
2019-01-15T10:19:50.339Z,30.60
2019-01-15T10:21:56.162Z,33.40
2019-01-15T10:24:01.306Z,27.90
2019-01-15T10:26:10.117Z,30.30
2019-01-15T10:28:15.554Z,28.80
2019-01-15T10:30:28.955Z,28.50
2019-01-15T10:33:03.676Z,30.00
2019-01-15T10:35:13.189Z,30.00
2019-01-15T10:37:18.733Z,32.60
2019-01-15T10:39:23.945Z,29.60
2019-01-15T10:41:29.741Z,29.20
2019-01-15T10:43:37.753Z,28.00
2019-01-15T10:45:42.986Z,30.50
2019-01-15T10:47:48.246Z,29.30
2019-01-15T10:49:53.933Z,30.30
2019-01-15T10:52:00.794Z,29.50
2019-01-15T10:54:06.082Z,28.60
2019-01-15T10:56:14.300Z,28.30
2019-01-15T10:58:19.723Z,29.30
2019-01-15T11:00:25.181Z,26.70
2019-01-15T11:02:30.923Z,29.80
2019-01-15T11:04:36.298Z,29.60
2019-01-15T11:06:41.482Z,31.80
2019-01-15T11:08:49.037Z,35.00
2019-01-15T11:10:54.651Z,33.90
2019-01-15T11:13:00.373Z,36.00
2019-01-15T11:15:11.482Z,36.80
2019-01-15T11:17:17.569Z,34.10
2019-01-15T11:19:22.969Z,34.90
2019-01-15T11:21:29.679Z,33.80
2019-01-15T11:23:35.190Z,35.40
2019-01-15T11:25:40.902Z,35.60
2019-01-15T11:27:46.377Z,35.40
2019-01-15T11:29:52.519Z,38.20
2019-01-15T11:31:58.561Z,35.50
2019-01-15T11:34:04.196Z,38.20
2019-01-15T11:36:09.849Z,36.70
2019-01-15T11:38:15.257Z,36.40
2019-01-15T11:40:21.438Z,35.80
2019-01-15T11:42:26.902Z,35.90
2019-01-15T11:44:32.424Z,36.40
2019-01-15T11:46:42.014Z,37.10
2019-01-15T11:48:48.013Z,37.20
2019-01-15T11:50:53.574Z,38.20
2019-01-15T11:52:59.894Z,35.00
2019-01-15T11:55:06.094Z,34.70
2019-01-15T11:57:11.553Z,34.30
2019-01-15T11:59:17.142Z,35.30
2019-01-15T12:01:28.713Z,34.70
2019-01-15T12:03:53.133Z,35.30
2019-01-15T12:06:16.246Z,36.00
2019-01-15T12:08:37.947Z,35.60
2019-01-15T12:11:13.642Z,35.00
2019-01-15T12:13:30.052Z,36.00
2019-01-15T12:16:01.770Z,35.70
2019-01-15T12:18:44.087Z,35.60
2019-01-15T12:21:10.226Z,34.50
2019-01-15T12:23:40.550Z,36.40
2019-01-15T12:26:05.574Z,36.60
2019-01-15T12:28:21.815Z,37.50
2019-01-15T12:30:55.478Z,36.60
2019-01-15T12:33:19.489Z,35.40
2019-01-15T12:35:44.002Z,34.40
2019-01-15T12:38:27.342Z,34.00
2019-01-15T12:41:07.361Z,35.10
2019-01-15T12:43:47.069Z,36.00
2019-01-15T12:46:24.266Z,33.80
2019-01-15T12:48:51.337Z,33.40
2019-01-15T12:51:08.298Z,33.20
2019-01-15T12:53:31.162Z,33.00
2019-01-15T12:55:54.090Z,31.00
2019-01-15T12:58:18.062Z,29.30
2019-01-15T13:00:40.922Z,28.50
2019-01-15T13:03:03.522Z,29.90
2019-01-15T13:05:27.808Z,30.10
2019-01-15T13:07:51.225Z,28.30
2019-01-15T13:10:33.664Z,27.50
2019-01-15T13:12:56.453Z,26.50
2019-01-15T13:15:29.289Z,27.90
2019-01-15T13:18:06.129Z,27.00
2019-01-15T13:20:26.321Z,28.40
2019-01-15T13:22:47.719Z,28.30
2019-01-15T13:25:10.598Z,28.70
2019-01-15T13:27:50.109Z,28.70
2019-01-15T13:30:06.072Z,29.50
2019-01-15T13:32:42.700Z,33.00
2019-01-15T13:35:13.505Z,34.40
2019-01-15T13:37:38.485Z,35.30
2019-01-15T13:40:03.443Z,34.80
2019-01-15T13:42:31.543Z,36.30
2019-01-15T13:44:59.676Z,35.40
2019-01-15T13:47:24.545Z,37.70
2019-01-15T13:49:54.746Z,38.30
2019-01-15T13:52:28.245Z,37.30
2019-01-15T13:55:01.979Z,35.50
2019-01-15T13:57:31.665Z,36.30
2019-01-15T13:59:56.005Z,34.50
2019-01-15T14:02:19.348Z,35.90
2019-01-15T14:04:55.953Z,34.80
2019-01-15T14:07:20.837Z,34.90
2019-01-15T14:09:39.790Z,33.50
2019-01-15T14:12:04.218Z,34.20
2019-01-15T14:14:29.035Z,35.00
2019-01-15T14:17:05.285Z,35.50
2019-01-15T14:19:31.517Z,35.70
2019-01-15T14:21:54.655Z,37.20
2019-01-15T14:24:22.062Z,37.00
2019-01-15T14:26:56.501Z,37.50
2019-01-15T14:29:20.014Z,38.10
2019-01-15T14:31:57.092Z,38.10
2019-01-15T14:34:21.501Z,37.80
2019-01-15T14:36:48.893Z,39.10
2019-01-15T14:39:16.264Z,39.80
2019-01-15T14:41:33.017Z,40.40
2019-01-15T14:43:46.802Z,39.90
2019-01-15T14:46:29.688Z,38.60
2019-01-15T14:48:50.719Z,38.80
2019-01-15T14:51:13.769Z,42.40
2019-01-15T14:53:36.983Z,41.60
2019-01-15T14:55:59.847Z,39.80
2019-01-15T14:58:38.243Z,41.00
2019-01-15T15:01:04.862Z,40.20
2019-01-15T15:03:22.979Z,40.40
2019-01-15T15:05:35.789Z,40.90
2019-01-15T15:08:03.233Z,41.60
2019-01-15T15:10:28.143Z,42.20
2019-01-15T15:12:51.057Z,41.30
2019-01-15T15:15:14.308Z,41.10
2019-01-15T15:17:47.985Z,40.60
2019-01-15T15:20:10.846Z,40.10
2019-01-15T15:22:33.939Z,40.30
2019-01-15T15:24:54.030Z,41.50
2019-01-15T15:27:19.670Z,41.00
2019-01-15T15:29:46.046Z,41.30
2019-01-15T15:32:09.242Z,41.50
2019-01-15T15:34:35.712Z,44.40
2019-01-15T15:36:51.035Z,46.80
2019-01-15T15:39:21.481Z,49.40
2019-01-15T15:42:00.944Z,50.20
2019-01-15T15:44:24.015Z,51.00
2019-01-15T15:46:46.939Z,55.20
2019-01-15T15:49:26.581Z,73.50
2019-01-15T15:52:09.485Z,76.10
2019-01-15T15:54:34.435Z,99.90
2019-01-15T15:56:53.138Z,99.90
2019-01-15T15:59:24.021Z,99.90
2019-01-15T16:01:42.285Z,99.90
2019-01-15T16:04:09.605Z,99.90
2019-01-15T16:06:32.764Z,94.10
2019-01-15T16:08:49.442Z,99.90
2019-01-15T16:11:21.746Z,99.90
2019-01-15T16:13:45.342Z,99.90
2019-01-15T16:15:58.672Z,99.90
2019-01-15T16:18:23.446Z,99.90
2019-01-15T16:20:48.181Z,99.90
2019-01-15T16:23:11.169Z,99.90
2019-01-15T16:25:30.547Z,97.70
2019-01-15T16:27:57.802Z,99.90
2019-01-15T16:30:34.681Z,95.90
2019-01-15T16:33:05.882Z,96.80
2019-01-15T16:35:33.431Z,98.20
2019-01-15T16:38:03.691Z,99.90
2019-01-15T16:40:38.615Z,99.90
2019-01-15T16:43:01.545Z,99.90
2019-01-15T16:45:26.725Z,99.90
2019-01-15T16:48:12.420Z,99.90
2019-01-15T16:50:48.132Z,99.90
2019-01-15T16:53:11.623Z,99.90
2019-01-15T16:55:36.061Z,99.90
2019-01-15T16:57:53.221Z,99.90
2019-01-15T17:00:16.093Z,99.90
2019-01-15T17:02:55.853Z,99.90
2019-01-15T17:05:19.497Z,99.90
2019-01-15T17:07:50.082Z,99.90
2019-01-15T17:10:30.574Z,99.90
2019-01-15T17:13:03.321Z,99.90
2019-01-15T17:15:29.653Z,99.90
2019-01-15T17:17:54.034Z,99.90
2019-01-15T17:20:06.243Z,99.90
2019-01-15T17:22:28.625Z,99.90
2019-01-15T17:24:55.854Z,99.90
2019-01-15T17:27:26.241Z,99.90
2019-01-15T17:29:39.199Z,99.90
2019-01-15T17:32:02.762Z,99.90
2019-01-15T17:34:42.900Z,99.90
2019-01-15T17:37:03.285Z,99.90
2019-01-15T17:39:33.030Z,99.90
2019-01-15T17:41:48.937Z,99.90
2019-01-15T17:44:17.005Z,99.90
2019-01-15T17:46:56.655Z,99.90
2019-01-15T17:49:22.279Z,99.90
2019-01-15T17:51:53.468Z,99.90
2019-01-15T17:54:18.690Z,99.90
2019-01-15T17:56:46.156Z,99.90
2019-01-15T17:59:09.797Z,99.90
2019-01-15T18:01:24.574Z,99.90
2019-01-15T18:03:53.899Z,99.90
2019-01-15T18:06:19.392Z,99.90
2019-01-15T18:08:42.577Z,99.90
2019-01-15T18:11:15.215Z,99.90
2019-01-15T18:13:39.391Z,99.90
2019-01-15T18:16:10.210Z,99.90
2019-01-15T18:18:25.363Z,99.90
2019-01-15T18:20:50.493Z,99.90
2019-01-15T18:23:17.142Z,99.90
2019-01-15T18:25:53.110Z,99.90
2019-01-15T18:30:51.981Z,99.90
2019-01-15T18:33:19.834Z,99.90
2019-01-15T18:35:56.128Z,99.90
2019-01-15T18:38:26.789Z,99.90
2019-01-15T18:40:54.183Z,99.90
2019-01-15T18:43:17.177Z,99.90
2019-01-15T18:45:39.074Z,99.90
2019-01-15T18:48:09.669Z,99.90
2019-01-15T18:50:34.456Z,99.90
2019-01-15T18:53:03.190Z,99.90
2019-01-15T18:55:39.924Z,99.90
2019-01-15T18:58:11.898Z,99.90
2019-01-15T19:00:40.982Z,99.90
2019-01-15T19:03:00.069Z,99.90
2019-01-15T19:05:24.230Z,99.90
2019-01-15T19:07:46.749Z,99.90
2019-01-15T19:10:17.333Z,99.90
2019-01-15T19:12:56.214Z,99.90
2019-01-15T19:15:26.031Z,99.90
2019-01-15T19:17:51.442Z,99.90
2019-01-15T19:20:18.276Z,99.90
2019-01-15T19:22:43.055Z,99.90
2019-01-15T19:25:09.007Z,99.90
2019-01-15T19:27:36.553Z,99.90
2019-01-15T19:29:57.643Z,99.90
2019-01-15T19:32:22.688Z,99.90
2019-01-15T19:34:59.239Z,99.90
2019-01-15T19:37:17.834Z,99.90
2019-01-15T19:39:51.610Z,99.90
2019-01-15T19:42:19.713Z,99.90
2019-01-15T19:44:45.612Z,99.90
2019-01-15T19:47:10.745Z,99.90
2019-01-15T19:49:33.770Z,99.90
2019-01-15T19:52:06.079Z,99.90
2019-01-15T19:54:30.723Z,99.90
2019-01-15T19:56:55.693Z,99.90
2019-01-15T19:59:22.063Z,99.90
2019-01-15T20:01:45.572Z,99.90
2019-01-15T20:04:44.709Z,99.90
2019-01-15T20:07:03.931Z,99.90
2019-01-15T20:09:26.620Z,99.90
2019-01-15T20:11:49.806Z,99.90
2019-01-15T20:14:17.443Z,99.90
2019-01-15T20:16:54.351Z,99.90
2019-01-15T20:19:15.585Z,99.90
2019-01-15T20:21:48.106Z,99.90
2019-01-15T20:24:12.025Z,99.90
2019-01-15T20:26:42.544Z,99.90
2019-01-15T20:29:19.530Z,99.90
2019-01-15T20:31:40.786Z,99.90
2019-01-15T20:34:23.910Z,99.90
2019-01-15T20:36:47.254Z,99.90
2019-01-15T20:39:10.682Z,99.90
2019-01-15T20:41:25.774Z,99.90
2019-01-15T20:44:02.874Z,99.90
2019-01-15T20:46:30.744Z,99.90
2019-01-15T20:49:07.732Z,99.90
2019-01-15T20:51:41.229Z,99.90
2019-01-15T20:54:09.372Z,99.90
2019-01-15T20:56:37.120Z,99.90
2019-01-15T20:58:51.125Z,99.90
2019-01-15T21:01:20.129Z,99.90
2019-01-15T21:03:53.504Z,99.90
2019-01-15T21:06:08.023Z,99.90
2019-01-15T21:08:23.387Z,99.90
2019-01-15T21:10:56.926Z,99.90
2019-01-15T21:13:38.034Z,99.90
2019-01-15T21:16:06.673Z,99.90
2019-01-15T21:18:40.476Z,99.90
2019-01-15T21:21:05.810Z,99.90
2019-01-15T21:23:22.536Z,99.90
2019-01-15T21:25:53.406Z,99.90
2019-01-15T21:28:29.876Z,99.90
2019-01-15T21:31:03.975Z,99.90
2019-01-15T21:33:46.619Z,99.90
2019-01-15T21:36:10.021Z,99.90
2019-01-15T21:38:27.871Z,99.90
2019-01-15T21:40:49.546Z,99.90
2019-01-15T21:43:17.032Z,99.90
2019-01-15T21:45:51.841Z,99.90
2019-01-15T21:48:22.531Z,99.90
2019-01-15T21:50:47.781Z,99.90
2019-01-15T21:53:10.977Z,99.90
2019-01-15T21:55:36.794Z,99.90
2019-01-15T21:58:00.688Z,99.90
2019-01-15T22:00:46.525Z,99.90
2019-01-15T22:03:23.338Z,99.90
2019-01-15T22:05:40.286Z,99.90
2019-01-15T22:08:23.283Z,99.90
2019-01-15T22:10:46.497Z,99.90
2019-01-15T22:13:17.923Z,99.90
2019-01-15T22:15:41.425Z,99.90
2019-01-15T22:18:17.951Z,99.90
2019-01-15T22:20:45.588Z,99.90
2019-01-15T22:23:10.298Z,99.90
2019-01-15T22:25:36.266Z,99.90
2019-01-15T22:27:54.438Z,99.90
2019-01-15T22:30:18.947Z,99.90
2019-01-15T22:32:42.185Z,99.90
2019-01-15T22:35:07.758Z,99.90
2019-01-15T22:37:35.009Z,99.90
2019-01-15T22:39:56.632Z,99.90
2019-01-15T22:42:25.973Z,99.90
2019-01-15T22:45:05.947Z,99.90
2019-01-15T22:47:30.638Z,99.90
2019-01-15T22:49:58.542Z,99.90
2019-01-15T22:52:24.462Z,99.90
2019-01-15T22:54:46.558Z,99.90
2019-01-15T22:57:10.390Z,99.90
2019-01-15T22:59:33.715Z,99.90
2019-01-15T23:02:16.310Z,99.90
2019-01-15T23:04:44.303Z,99.90
2019-01-15T23:07:07.862Z,99.90
2019-01-15T23:09:31.802Z,99.90
2019-01-15T23:11:59.553Z,99.90
2019-01-15T23:14:20.905Z,99.90
2019-01-15T23:16:46.235Z,99.90
2019-01-15T23:19:17.038Z,99.90
2019-01-15T23:21:40.806Z,99.90
2019-01-15T23:24:14.198Z,99.90
2019-01-15T23:26:41.723Z,99.90
2019-01-15T23:29:06.179Z,99.90
2019-01-15T23:31:39.798Z,99.90
2019-01-15T23:34:07.153Z,99.90
2019-01-15T23:36:48.133Z,99.90
2019-01-15T23:39:09.772Z,99.90
2019-01-15T23:41:34.203Z,99.90
2019-01-15T23:43:50.375Z,99.90
2019-01-15T23:46:22.665Z,99.90
2019-01-15T23:48:53.849Z,99.90
2019-01-15T23:51:19.718Z,99.90
2019-01-15T23:53:59.441Z,99.90
2019-01-15T23:56:25.615Z,99.90
2019-01-15T23:58:53.897Z,99.90
